createdAt,value
2023-05-14T00:06:34.643Z,98
2023-05-14T00:16:35.117Z,98
2023-05-14T00:26:35.198Z,98
2023-05-14T00:36:35.512Z,98
2023-05-14T00:46:35.878Z,99
2023-05-14T00:56:35.962Z,99
2023-05-14T01:06:36.408Z,99
2023-05-14T01:16:37.081Z,99
2023-05-14T01:26:37.554Z,99
2023-05-14T01:46:38.657Z,99
2023-05-14T01:56:39.729Z,99
2023-05-14T02:06:40.632Z,99
2023-05-14T02:26:41.851Z,100
2023-05-14T02:36:42.855Z,99
2023-05-14T02:46:43.344Z,99
2023-05-14T03:06:44.979Z,98
2023-05-14T03:16:45.518Z,98
2023-05-14T03:26:46.523Z,98
2023-05-14T03:36:47.448Z,98
2023-05-14T03:46:47.765Z,98
2023-05-14T04:06:49.069Z,98
2023-05-14T04:16:49.976Z,98
2023-05-14T04:26:51.052Z,98
2023-05-14T04:46:52.279Z,98
2023-05-14T04:56:52.607Z,98
2023-05-14T05:06:52.809Z,98
2023-05-14T05:16:53.583Z,97
2023-05-14T05:26:54.347Z,96
2023-05-14T05:36:54.434Z,96
2023-05-14T05:46:55.259Z,95
2023-05-14T05:56:56.238Z,94
2023-05-14T06:06:56.884Z,93
2023-05-14T06:16:57.725Z,91
2023-05-14T06:36:58.554Z,88
2023-05-14T06:46:59.493Z,85
2023-05-14T07:07:00.800Z,82
2023-05-14T07:17:01.932Z,80
2023-05-14T07:27:02.722Z,81
2023-05-14T07:37:03.255Z,79
2023-05-14T07:47:04.314Z,77
2023-05-14T07:57:04.723Z,76
2023-05-14T08:07:05.645Z,75
2023-05-14T08:17:06.039Z,73
2023-05-14T08:27:06.895Z,72
2023-05-14T08:37:07.430Z,69
2023-05-14T08:57:09.335Z,66
2023-05-14T09:07:10.130Z,63
2023-05-14T09:17:10.669Z,62
2023-05-14T09:27:11.182Z,61
2023-05-14T09:47:12.338Z,59
2023-05-14T09:57:13.381Z,61
2023-05-14T10:07:13.560Z,59
2023-05-14T10:17:14.272Z,58
2023-05-14T10:37:16.047Z,57
2023-05-14T10:47:16.691Z,55
2023-05-14T10:57:17.005Z,52
2023-05-14T11:07:17.383Z,53
2023-05-14T11:17:17.628Z,54
2023-05-14T11:27:17.707Z,52
2023-05-14T11:37:18.351Z,52
2023-05-14T11:47:18.652Z,50
2023-05-14T11:57:19.579Z,50
2023-05-14T12:07:20.069Z,49
2023-05-14T12:17:21.120Z,52
2023-05-14T12:27:21.356Z,51
2023-05-14T12:37:21.998Z,52
2023-05-14T12:47:22.347Z,54
2023-05-14T12:57:22.982Z,51
2023-05-14T13:07:23.184Z,50
2023-05-14T13:17:23.743Z,51
2023-05-14T13:37:25.447Z,50
2023-05-14T13:57:26.624Z,48
2023-05-14T14:07:27.576Z,49
2023-05-14T14:17:27.915Z,46
2023-05-14T14:27:28.515Z,47
2023-05-14T14:37:29.487Z,45
2023-05-14T14:47:30.566Z,44
2023-05-14T14:57:31.283Z,45
2023-05-14T15:07:31.941Z,46
2023-05-14T15:17:32.305Z,49
2023-05-14T15:27:32.976Z,50
2023-05-14T15:37:33.206Z,50
2023-05-14T15:47:33.661Z,50
2023-05-14T15:57:34.512Z,50
2023-05-14T16:57:59.293Z,49
2023-05-14T21:37:56.429Z,82
2023-05-14T21:47:56.918Z,83
2023-05-14T21:57:57.015Z,84
2023-05-14T22:07:57.584Z,86
2023-05-14T22:17:58.560Z,87
2023-05-14T22:27:59.622Z,88
2023-05-14T22:37:59.907Z,88
2023-05-14T22:48:00.490Z,88
2023-05-14T22:58:01.255Z,89
2023-05-14T23:08:01.697Z,89
2023-05-14T23:18:02.716Z,91
2023-05-14T23:28:03.436Z,90
2023-05-14T23:38:03.467Z,91
2023-05-14T23:48:03.896Z,92
2023-05-14T23:58:04.177Z,93
